»·PEaware :: DAL1741 KSLC-KPDX

DAL1741 :: KSLC-KPDX

FLIGHT INFORMATION

Flight Status: Arrived
Operator:
Delta Air Lines
More flights by this operator :: More flights under this callsign
Pilot: Patricio R. (14780)
Aircraft: AIRBUS A320
(A320)
More flights by this aircraft type
Origin: KSLC Salt Lake City Intl
United States
Destination: KPDX Portland Intl
United States
More flights between these airports :: More routes between these airports
Route: CGULL1 TWF J15 BOI J163 BKE JOTBA HHOOD4
File this flight plan on PilotEdge
Remarks: PBN / A1B1C1D1O1S1 DOF / 180723 REG / FFA320 EET / KZSE0058 OPR / DAL PER / C RMK / TCAS SIMBRIEF
Altitude:
(Current/Filed)
36,000ft
Speed:
(Current/Filed)
436kts
Departed: 23-Jul-18 12:27 PM
Arrived: 23-Jul-18 02:03 PM
Distance/Time
Traveled:
546nm/1:36
Distance/Time
To Go:
Arrived

Flight Plot

Page will automatically refresh every two minutes.

Flight plan parsing failed; only flown route is shown


Map Options




Map Legend


Flown Route
Filed Route
Departure Airport
Arrival Airport
Navaid (VOR, NDB)
Fix

Horizontal Profiles

Position Reports

Time Latitude Longitude Heading Altitude Ground
Speed
23-Jul-18 12:06 40.787742 -111.981140 283 4236ft 0kts
23-Jul-18 12:07 40.787742 -111.981140 283 4236ft 0kts
23-Jul-18 12:08 40.787742 -111.981140 283 4236ft 0kts
23-Jul-18 12:09 40.787742 -111.981140 283 4236ft 0kts
23-Jul-18 12:10 40.787742 -111.981140 283 4236ft 0kts
23-Jul-18 12:11 40.787742 -111.981140 283 4236ft 0kts
23-Jul-18 12:12 40.787742 -111.981140 283 4236ft 0kts
23-Jul-18 12:13 40.787742 -111.981140 283 4236ft 0kts
23-Jul-18 12:14 40.787742 -111.981140 283 4236ft 0kts
23-Jul-18 12:15 40.787742 -111.981140 283 4236ft 0kts
23-Jul-18 12:16 40.787742 -111.981140 283 4236ft 0kts
23-Jul-18 12:17 40.787741 -111.981140 283 4236ft 0kts
23-Jul-18 12:18 40.787612 -111.980724 284 4236ft 2kts
23-Jul-18 12:19 40.787500 -111.980095 283 4236ft 0kts
23-Jul-18 12:20 40.787500 -111.980096 283 4236ft 0kts
23-Jul-18 12:21 40.787500 -111.980096 283 4236ft 0kts
23-Jul-18 12:22 40.787500 -111.980096 283 4236ft 0kts
23-Jul-18 12:23 40.788864 -111.979848 358 4236ft 10kts
23-Jul-18 12:24 40.789225 -111.976976 175 4236ft 12kts
23-Jul-18 12:25 40.785181 -111.976544 175 4236ft 16kts
23-Jul-18 12:26 40.779853 -111.975908 174 4236ft 25kts
23-Jul-18 12:27 40.774688 -111.974774 165 4236ft 0kts
23-Jul-18 12:28 40.777384 -111.973446 354 4236ft 59kts
23-Jul-18 12:29 40.819686 -111.978408 355 5938ft 180kts
23-Jul-18 12:30 40.857503 -112.031122 292 7962ft 247kts
23-Jul-18 12:31 40.885827 -112.128134 292 10412ft 303kts
23-Jul-18 12:32 40.918839 -112.239939 292 12855ft 345kts
23-Jul-18 12:33 40.968694 -112.344221 329 15838ft 350kts
23-Jul-18 12:34 41.051522 -112.411008 328 18793ft 352kts
23-Jul-18 12:35 41.131790 -112.477760 325 21205ft 360kts
23-Jul-18 12:36 41.210499 -112.551322 320 22253ft 360kts
23-Jul-18 12:37 41.289101 -112.635994 311 23381ft 363kts
23-Jul-18 12:38 41.357520 -112.736018 309 25088ft 375kts
23-Jul-18 12:39 41.428001 -112.840549 307 26799ft 386kts
23-Jul-18 12:40 41.500276 -112.951393 306 28025ft 407kts
23-Jul-18 12:41 41.575919 -113.067602 306 29034ft 423kts
23-Jul-18 12:42 41.653209 -113.186770 306 30549ft 428kts
23-Jul-18 12:43 41.731337 -113.307723 306 31884ft 433kts
23-Jul-18 12:44 41.809317 -113.428927 306 33539ft 425kts
23-Jul-18 12:45 41.885598 -113.547994 306 34963ft 420kts
23-Jul-18 12:46 41.959993 -113.664552 305 36162ft 417kts
23-Jul-18 12:47 42.034708 -113.782083 305 36366ft 415kts
23-Jul-18 12:48 42.109012 -113.899418 305 36367ft 416kts
23-Jul-18 12:49 42.183579 -114.017568 305 36366ft 416kts
23-Jul-18 12:50 42.258483 -114.136124 305 36369ft 416kts
23-Jul-18 12:51 42.333207 -114.254906 305 36373ft 416kts
23-Jul-18 12:52 42.407767 -114.373911 305 36374ft 416kts
23-Jul-18 12:53 42.482426 -114.493557 305 36377ft 416kts
23-Jul-18 12:54 42.558642 -114.611210 306 36379ft 417kts
23-Jul-18 12:55 42.634284 -114.728459 306 36385ft 417kts
23-Jul-18 12:56 42.710299 -114.846829 306 36389ft 417kts
23-Jul-18 12:57 42.786338 -114.965722 306 36382ft 417kts
23-Jul-18 12:58 42.861900 -115.084353 306 36321ft 418kts
23-Jul-18 12:59 42.937931 -115.204207 305 36280ft 419kts
23-Jul-18 13:00 43.013800 -115.324299 305 36328ft 417kts
23-Jul-18 13:01 43.089123 -115.444026 305 36325ft 413kts
23-Jul-18 13:02 43.162335 -115.560869 304 36275ft 410kts
23-Jul-18 13:03 43.234711 -115.676841 304 36254ft 409kts
23-Jul-18 13:04 43.308010 -115.794760 304 36275ft 407kts
23-Jul-18 13:05 43.381075 -115.912785 304 36263ft 405kts
23-Jul-18 13:06 43.453893 -116.030893 304 36243ft 404kts
23-Jul-18 13:07 43.526297 -116.148803 304 36241ft 404kts
23-Jul-18 13:08 43.607070 -116.258126 312 36239ft 411kts
23-Jul-18 13:09 43.692508 -116.362638 312 36236ft 412kts
23-Jul-18 13:10 43.777953 -116.467522 312 36240ft 412kts
23-Jul-18 13:11 43.863386 -116.572795 312 36243ft 412kts
23-Jul-18 13:12 43.946628 -116.675775 311 36248ft 412kts
23-Jul-18 13:13 44.031902 -116.781687 311 36242ft 412kts
23-Jul-18 13:14 44.115995 -116.886546 311 36237ft 411kts
23-Jul-18 13:15 44.199966 -116.991672 311 36236ft 410kts
23-Jul-18 13:16 44.284462 -117.097883 311 36238ft 409kts
23-Jul-18 13:17 44.368732 -117.204237 311 36242ft 409kts
23-Jul-18 13:18 44.452737 -117.310687 311 36272ft 408kts
23-Jul-18 13:19 44.536458 -117.417208 311 36298ft 408kts
23-Jul-18 13:20 44.620322 -117.524344 311 36301ft 408kts
23-Jul-18 13:21 44.704008 -117.631692 311 36304ft 409kts
23-Jul-18 13:22 44.784326 -117.735133 311 36315ft 409kts
23-Jul-18 13:23 44.846919 -117.862140 282 36329ft 392kts
23-Jul-18 13:24 44.867494 -118.011526 277 36319ft 388kts
23-Jul-18 13:25 44.886916 -118.160769 277 36288ft 387kts
23-Jul-18 13:26 44.906082 -118.309466 277 36268ft 386kts
23-Jul-18 13:27 44.925062 -118.458315 277 36265ft 386kts
23-Jul-18 13:28 44.943849 -118.607272 277 36272ft 386kts
23-Jul-18 13:29 44.958315 -118.723098 277 36288ft 387kts
23-Jul-18 13:30 44.976812 -118.872671 276 36300ft 387kts
23-Jul-18 13:31 44.995098 -119.022235 276 36289ft 387kts
23-Jul-18 13:32 45.016153 -119.196579 276 36257ft 386kts
23-Jul-18 13:33 45.033933 -119.345702 276 36235ft 385kts
23-Jul-18 13:34 45.051496 -119.494662 276 36063ft 384kts
23-Jul-18 13:35 45.065923 -119.618364 276 35256ft 384kts
23-Jul-18 13:36 45.082633 -119.763096 275 34325ft 380kts
23-Jul-18 13:37 45.099301 -119.909288 275 33456ft 374kts
23-Jul-18 13:38 45.115106 -120.049452 275 32008ft 358kts
23-Jul-18 13:39 45.130239 -120.185215 275 30341ft 342kts
23-Jul-18 13:40 45.144538 -120.314861 275 28729ft 327kts
23-Jul-18 13:41 45.158211 -120.440137 275 27160ft 319kts
23-Jul-18 13:42 45.182332 -120.559809 294 25554ft 322kts
23-Jul-18 13:43 45.223758 -120.667075 293 24004ft 316kts
23-Jul-18 13:44 45.261640 -120.765624 293 22567ft 310kts
23-Jul-18 13:45 45.301522 -120.869687 294 21042ft 305kts
23-Jul-18 13:46 45.341408 -120.974123 294 19512ft 300kts
23-Jul-18 13:47 45.380838 -121.077766 294 17999ft 304kts
23-Jul-18 13:48 45.424490 -121.192890 293 16545ft 335kts
23-Jul-18 13:49 45.451269 -121.317936 283 14612ft 330kts
23-Jul-18 13:50 45.475887 -121.442287 284 12944ft 324kts
23-Jul-18 13:51 45.499897 -121.563895 284 11269ft 313kts
23-Jul-18 13:52 45.522492 -121.679178 283 9625ft 291kts
23-Jul-18 13:53 45.532183 -121.789802 272 8030ft 284kts
23-Jul-18 13:54 45.536050 -121.898023 273 6721ft 256kts
23-Jul-18 13:55 45.526101 -121.991311 256 6704ft 234kts
23-Jul-18 13:56 45.509539 -122.081053 256 6704ft 234kts
23-Jul-18 13:57 45.493196 -122.170341 256 6010ft 232kts
23-Jul-18 13:58 45.477084 -122.259051 256 5010ft 229kts
23-Jul-18 13:59 45.495199 -122.339270 299 3918ft 218kts
23-Jul-18 14:00 45.522683 -122.410205 299 2904ft 180kts
23-Jul-18 14:01 45.544333 -122.466697 298 1676ft 142kts
23-Jul-18 14:02 45.563087 -122.514069 300 845ft 136kts
23-Jul-18 14:03 45.581386 -122.561318 299 166ft 136kts
23-Jul-18 14:04 45.591901 -122.588735 285 38ft 28kts
23-Jul-18 14:05 45.591708 -122.594210 228 38ft 10kts
23-Jul-18 14:06 45.591402 -122.594717 229 38ft 0kts
23-Jul-18 14:07 45.591402 -122.594717 229 38ft 0kts

Navigation Log

Ident Type
Flight plan parsing failed, navigation log unavailable